createdAt,value
2022-11-04T00:07:31.709Z,9.63
2022-11-04T00:17:33.297Z,9.66
2022-11-04T00:27:55.746Z,9.52
2022-11-04T00:37:57.478Z,9.58
2022-11-04T00:48:00.116Z,9.58
2022-11-04T00:58:01.997Z,9.54
2022-11-04T01:08:03.877Z,9.57
2022-11-04T01:18:06.290Z,9.77
2022-11-04T01:28:08.465Z,9.72
2022-11-04T01:38:11.311Z,9.71
2022-11-04T01:48:22.243Z,9.82
2022-11-04T01:58:28.947Z,9.74
2022-11-04T02:08:31.991Z,9.68
2022-11-04T02:18:44.668Z,9.69
2022-11-04T02:29:05.208Z,9.74
2022-11-04T02:39:23.063Z,9.68
2022-11-04T02:49:33.425Z,9.67
2022-11-04T02:59:56.595Z,9.60
2022-11-04T03:10:04.800Z,9.54
2022-11-04T03:20:12.319Z,9.49
2022-11-04T03:30:19.960Z,9.40
2022-11-04T03:40:22.783Z,9.31
2022-11-04T03:50:28.927Z,9.47
2022-11-04T04:00:39.192Z,9.34
2022-11-04T04:11:03.133Z,9.25
2022-11-04T04:21:09.538Z,9.13
2022-11-04T04:31:34.666Z,9.19
2022-11-04T04:41:54.914Z,9.13
2022-11-04T04:51:57.822Z,9.00
2022-11-04T05:01:59.747Z,8.98
2022-11-04T05:12:01.618Z,8.99
2022-11-04T05:22:04.722Z,9.04
2022-11-04T05:32:06.820Z,9.00
2022-11-04T05:42:11.784Z,9.01
2022-11-04T05:52:13.568Z,8.88
2022-11-04T06:02:20.535Z,8.78
2022-11-04T06:12:23.512Z,8.79
2022-11-04T06:22:25.232Z,8.85
2022-11-04T06:32:26.924Z,8.90
2022-11-04T06:42:28.967Z,8.85
2022-11-04T06:52:42.105Z,8.82
2022-11-04T07:02:49.290Z,8.94
2022-11-04T07:12:50.958Z,9.09
2022-11-04T07:22:55.584Z,9.25
2022-11-04T07:32:57.346Z,9.29
2022-11-04T07:43:01.314Z,9.29
2022-11-04T07:53:03.042Z,9.37
2022-11-04T08:03:04.771Z,9.21
2022-11-04T08:13:07.991Z,9.17
2022-11-04T08:23:12.937Z,9.20
2022-11-04T08:33:15.557Z,9.16
2022-11-04T08:43:17.388Z,9.09
2022-11-04T08:53:19.530Z,9.18
2022-11-04T09:03:23.228Z,9.26
2022-11-04T09:13:25.006Z,9.37
2022-11-04T09:23:31.258Z,9.57
2022-11-04T09:33:33.424Z,9.53
2022-11-04T09:44:13.979Z,9.52
2022-11-04T09:54:47.303Z,9.26
2022-11-04T10:05:05.280Z,9.24
2022-11-04T10:15:28.222Z,9.40
2022-11-04T10:25:47.203Z,9.37
2022-11-04T10:35:57.692Z,9.58
2022-11-04T10:46:28.999Z,9.36
2022-11-04T10:56:34.156Z,9.89
2022-11-04T11:06:38.664Z,10.57
2022-11-04T11:16:45.743Z,10.72
2022-11-04T11:26:52.343Z,10.84
2022-11-04T11:36:57.902Z,10.61
2022-11-04T11:47:03.108Z,10.50
2022-11-04T11:57:25.655Z,10.64
2022-11-04T12:18:30.909Z,10.96
2022-11-04T12:28:57.159Z,11.28
2022-11-04T12:39:35.083Z,11.38
2022-11-04T12:49:49.191Z,12.17
2022-11-04T13:00:10.644Z,12.19
2022-11-04T13:10:28.937Z,11.79
2022-11-04T13:20:50.594Z,11.86
2022-11-04T13:31:08.075Z,11.89
2022-11-04T13:41:47.491Z,11.69
2022-11-04T13:52:01.102Z,11.49
2022-11-04T14:02:12.814Z,11.31
2022-11-04T14:12:30.310Z,11.23
2022-11-04T14:22:39.110Z,10.95
2022-11-04T14:32:41.950Z,10.98
2022-11-04T14:42:51.850Z,10.88
2022-11-04T14:53:00.882Z,10.74
2022-11-04T15:03:57.497Z,10.58
2022-11-04T15:13:50.079Z,10.61
2022-11-04T15:23:57.673Z,10.48
2022-11-04T15:34:02.272Z,10.50
2022-11-04T15:44:04.410Z,10.31
2022-11-04T15:54:30.635Z,10.45
2022-11-04T16:04:35.520Z,10.49
2022-11-04T16:14:38.274Z,10.40
2022-11-04T16:24:41.687Z,10.37
2022-11-04T16:34:50.779Z,10.26
2022-11-04T16:45:02.630Z,10.24
2022-11-04T16:55:05.596Z,10.30
2022-11-04T17:05:08.815Z,10.30
2022-11-04T17:15:12.948Z,10.14
2022-11-04T17:25:23.949Z,10.30
2022-11-04T17:35:27.654Z,10.35
2022-11-04T17:45:30.734Z,10.41
2022-11-04T17:55:46.793Z,10.45
2022-11-04T18:06:03.038Z,10.36
2022-11-04T18:16:12.897Z,10.16
2022-11-04T18:26:14.615Z,10.19
2022-11-04T18:36:16.760Z,10.20
2022-11-04T18:46:20.006Z,10.14
2022-11-04T18:56:23.405Z,10.26
2022-11-04T19:06:30.998Z,10.16
2022-11-04T19:16:41.883Z,10.26
2022-11-04T19:26:43.995Z,10.20
2022-11-04T19:36:46.063Z,10.23
2022-11-04T19:46:50.884Z,10.22
2022-11-04T19:56:56.297Z,10.24
2022-11-04T20:06:58.296Z,10.17
2022-11-04T20:17:00.363Z,10.22
2022-11-04T20:27:02.367Z,10.19
2022-11-04T20:37:04.164Z,10.32
2022-11-04T20:47:06.995Z,10.26
2022-11-04T20:57:08.664Z,10.29
2022-11-04T21:07:11.076Z,10.30
2022-11-04T21:17:13.508Z,10.23
2022-11-04T21:27:15.159Z,10.29
2022-11-04T21:37:26.026Z,10.18
2022-11-04T21:47:27.992Z,10.26
2022-11-04T21:57:30.733Z,10.32
2022-11-04T22:07:51.011Z,10.42
2022-11-04T22:17:52.780Z,10.35
2022-11-04T22:27:56.754Z,10.20
2022-11-04T22:38:01.854Z,10.06
2022-11-04T22:48:07.007Z,9.80
2022-11-04T22:58:13.743Z,9.59
2022-11-04T23:08:24.892Z,9.48
2022-11-04T23:18:43.520Z,9.46
2022-11-04T23:29:04.820Z,9.33
2022-11-04T23:39:07.537Z,9.34
2022-11-04T23:49:31.008Z,9.29
2022-11-04T23:59:57.071Z,9.16
